RAID DU MORNE PITAULT (Grand parcours) le 07/01/2017

Recherche par Dossard : par Nom : par Club :

Place Dossard Nom Prenom Cat. Pl. Cat. Temps Club Sexe
1 100 TRAMMA Fred V1 1 01:25:52 GOLDEN STAR M
2 55 BUREAU Pierre SE 1 01:35:03 Manikou M
3 76 PONCHATEAU Jean Pierre V1 2 01:35:03 Manikou/ TR/ STT/ TLT972 M
4 57 TEYSSIER Dominique V2 1 01:36:49 M
5 19 OGER Gregory SE 2 01:38:27 Tchimbe raid / les baroudeurs M
6 133 RAMANICK STELVE V1 3 01:39:55 MAIRIE SPORTIVE M
7 23 BERNARD Patrick SE 3 01:41:14 Tchimbé raid M
8 27 COURDE Remi SE 4 01:42:48 Team Prefontaine M
9 117 MACABRE CAMILLE V1 4 01:43:05 FR MORNE PITAULT M
10 142 LIN GUY ALBERT V2 2 01:44:47 M
11 114 ROUBLIQUE ELISABEHT V1 1 01:44:47 CTR F
12 2 PERFINI Maurice V1 5 01:44:48 TCHIMBE RAID M
13 60 BELLEMARE Bruno V1 6 01:45:00 M
14 103 SYLVESTRE FRANCK V1 7 01:45:02 KAWANN TRIATHLON CLUB M
15 34 VERRES Alexandre V2 3 01:46:05 samaritaine team trail M
16 35 THORAVAL Laura SE 1 01:48:00 AMCF F
17 139 QUIROS PASCALE V2 1 01:48:41 BOULIAC F
18 32 ABDOU SOUFFOU Djouma V1 8 01:48:41 RSMAM M
19 1 ADENET Clara SE 2 01:49:35 team D mich/ madinina bikers / tchimbe raid F
20 31 VALETTE Bernard V3 1 01:49:39 manikou M
21 78 MICHERON Geraldine V1 2 01:50:21 manikou F
22 101 CHABANEIX Sebastien SE 5 01:50:31 Golden Star M
23 88 GAY Herve SE 6 01:50:39 Intersport / SAG/ Manikou M
24 128 ARCADE BAPTISTE SE 7 01:51:34 M
25 94 PINCEAU Gael SE 8 01:51:35 M
26 113 MEHAL LIONEL V1 9 01:52:02 FR MORNE PITAULT M
27 93 BEAUSOLEIL Patrice V1 10 01:52:20 M
28 16 MONTHEARD David V1 11 01:52:36 M
29 67 SERGENT Guillaume SE 9 01:52:42 M
30 63 ARMEDE Roddy V1 12 01:54:38 Tchimbé Raid M
31 116 FORGARD GERMAIN V2 4 01:54:56 FR MORNE PITAULT M
32 121 DEROZE MAURILLE V2 5 01:55:00 M
33 46 ADOLPHE Claude V1 13 01:55:02 M
34 21 SAGE Remi V1 14 01:56:15 Aiglon Du Lamentin M
35 12 BOYAVAL Jean Philippe V1 15 01:56:49 TCHIMBE RAID M
36 96 MARIE JOSEPH Christian SE 10 01:57:10 M
37 82 GERMANY Frederic V1 16 01:57:12 CLUB MANIKOU/SPS TEAM M
38 44 PRIAN Cecile V1 3 01:57:14 F
39 8 TOSELLI Joris SE 11 01:57:19 RSMAM M
40 24 LETTY Stephane V2 6 01:57:39 TCHIMBE RAID M
41 97 NAGOU Lionel V1 17 01:58:42 sam horizon M
42 124 NIVORE CHRISTIAN V2 7 01:58:43 M
43 80 BRAVO Yvaille SE 12 01:59:05 Golden Star M
44 53 ERICHER CAMPO Johanna V1 4 01:59:16 F
45 132 ARRONDELL OLIVIER V2 8 01:59:53 MAIRIE SPORTIVE M
46 98 MESLIEN Olivier SE 13 01:59:53 M
47 73 COUVREUR Vincent SE 14 01:59:58 M
48 110 BORVAL JOEL V1 18 02:00:32 FTJ CYCAS M
49 13 RETORY Denis V2 9 02:00:32 M
50 11 CURFS Hubert V3 2 02:00:33 tchimbé raid M
51 72 RISAL Rodolphe V1 19 02:00:54 M
52 112 ROCHEREAU YANNICK V1 20 02:00:55 M
53 108 EMONIDE MICHEL V2 10 02:01:34 CTR M
54 69 SURIC Jean philippe V1 21 02:01:43 amcf M
55 141 LUCARELLI MICHAEL SE 15 02:02:06 M
56 123 DEFOI LUCE V2 2 02:02:44 F
57 137 LOUISE Fred V2 11 02:03:02 TCHIMBE RAID M
58 83 RUBY RABERIN Florence V1 5 02:03:13 F
59 64 MAYAUD Sylvain V2 12 02:04:42 CGOSH M
60 118 CHALONO GUY V3 3 02:04:56 FFE M
61 104 BOYER PIERRE V1 22 02:06:55 KAWANN TRIATHLON CLUB M
62 42 GUICHARD Pascal V3 4 02:08:04 manikou M
63 87 HILDERALD Isnard V2 13 02:08:09 samaritaine team trail/renovation M
64 140 THOMASI JEAN MARC V1 23 02:08:11 M
65 135 CARBONIE ROMAIN SE 16 02:08:47 MAIRIESPORTIVE M
66 43 RESIDANT Didier V1 24 02:10:26 SAM HORIZON 2000 M
67 70 LORENZINI Philippe V3 5 02:10:34 M
68 134 GARNON PASCAL V3 6 02:11:00 MAIRIE SPORTIVE M
69 5 LANSADE Alexandre SE 17 02:11:06 SAM HORIZON 2000 M
70 54 GUILLORIT Agnes V2 3 02:11:15 samaritaine team trail F
71 90 COBB Marine SE 3 02:11:44 Aiglon du Lamentin F
72 51 GRAND Fabrice V1 25 02:11:44 M
73 22 VALVERDE Philippe V1 26 02:12:25 M
74 109 EMONIDES MARIE CHANTAL V2 4 02:13:26 CTR F
75 89 LECHEVALLIER Florent SE 18 02:13:32 Team Prefontaine M
76 136 MORESTANE JEAN MARIC V1 27 02:13:34 AMCF M
77 41 BALLAND Marc V2 14 02:13:38 AMCF M
78 145 MUCRET . SE 19 02:13:54 M
79 49 RADOWSKI Sylvia V1 6 02:15:12 F
80 58 KIBIR Germain V2 15 02:15:13 chimbé raid M
81 144 BLONDEAU PATRICK V2 16 02:15:45 M
82 79 GEKIERE Cyril V1 28 02:15:50 manikou M
83 130 JEREMIE TONY SE 20 02:15:53 SAM HORIZON M
84 4 HONORE Yann V1 29 02:15:55 Tchimbe raid CARAĎB MOTER M
85 125 MORVILLE JEAN LOUIS V1 30 02:17:53 M
86 52 DRAKE BROCKMAN Alan SE 21 02:18:36 M
87 47 CIDALISE MONTAISE Franck olivier V1 31 02:18:42 M
88 56 ARZEL Mathilde SE 4 02:19:07 Team Madinform F
89 71 DE CHAVIGNY Pauline SE 5 02:19:07 Team Madinform F
90 81 RONCO Manon SE 6 02:19:07 F
91 28 CHRISTIAENS Hemmerick V1 32 02:19:08 TCHIMBE RAID M
92 45 HELENE Josiane V2 5 02:19:14 club tchimbe F
93 99 ARICAT Felix V2 17 02:19:19 tchimbe raid M
94 10 DE LAGUARIGUE Celine V1 7 02:21:03 Manikou F
95 39 DALY VIVIES Kathleen V1 8 02:22:31 MANIKOU F
96 126 MARIE NELLY CHRISTIAN V2 18 02:23:16 FR MORNE PITAULT M
97 48 GAZET Nathalie V1 9 02:25:23 F
98 122 ARCADE PHILIPPE V2 19 02:25:57 M
99 37 VETRAL Eric V2 20 02:26:23 M
100 85 ADELAIDE Daniel V3 7 02:26:52 MANIKOU M
101 84 MARIE LUCE Pierre V1 33 02:27:25 Amcf M
102 120 BOZIN FABRICE V1 34 02:28:04 ASRFO972 M
103 59 FERRER Frederic V1 35 02:28:45 Manikou M
104 6 LOUPIAS Tristan SE 22 02:29:15 Club Manikou M
105 129 PICHI MANUEL V1 36 02:30:50 ASC SARA M
106 61 DELAGE Sophie V1 10 02:33:54 CGOSH F
107 30 PIGNOL Jerome SE 23 02:34:06 Tchimbé raid M
108 66 GENTIL Celine SE 7 02:36:23 F
109 62 DEWULF Herve V1 37 02:37:20 TCHIMBE RAID M
110 29 CIDALISE MONTAISE Sandra V1 11 02:38:26 ffse F
111 77 BENZONI Laure SE 8 02:40:25 F
112 9 MARANT Lucie SE 9 02:40:25 F
113 74 RAUTUREAU Bilitis SE 10 02:40:25 F
114 68 TALMANN Andre V4 1 02:42:08 tchimbe raid M
115 18 HAUTEVILLE Sonia V2 6 02:43:07 F
116 119 LAURIER GABY V1 38 02:43:08 ASRFO972 M
117 20 JOSEPH ROSE Laurie SE 11 02:43:08 Tchimbé raid F
118 33 LECOMTE Gaelle V1 12 02:48:54 F
119 65 CAZENAVE Gilles SE 24 02:49:30 Prodrone360 M
120 143 RIAM FRANTZ V1 39 02:50:43 M
121 36 ZAMY Sonia V2 7 02:58:02 mairie sportive F
122 131 CINNA MIRELLA V1 13 03:15:08 SAM HORIZON F
123 138 DESIRE DANIELE V2 8 03:20:11 F
124 127 MARIE SAINTE DAVID V1 40 03:27:29 FR MORNE PITAULT M
125 15 MANCIET FILADELFIA Indiana V2 9 03:44:02 F
126 14 FILADELFIA Philippe V3 8 03:44:38 M